sensor_id;sensor_type;location;lat;lon;timestamp;temperature;humidity
37754;DHT22;23596;52.520;13.464;2023-02-11T00:00:10;5.40;99.90
37754;DHT22;23596;52.520;13.464;2023-02-11T00:02:36;3.50;99.90
37754;DHT22;23596;52.520;13.464;2023-02-11T00:05:02;3.50;99.90
37754;DHT22;23596;52.520;13.464;2023-02-11T00:07:29;3.40;99.90
37754;DHT22;23596;52.520;13.464;2023-02-11T00:09:55;4.30;99.90
37754;DHT22;23596;52.520;13.464;2023-02-11T00:12:21;3.40;99.90
37754;DHT22;23596;52.520;13.464;2023-02-11T00:14:47;3.50;99.90
37754;DHT22;23596;52.520;13.464;2023-02-11T00:17:12;3.50;99.90
37754;DHT22;23596;52.520;13.464;2023-02-11T00:19:38;4.30;99.90
37754;DHT22;23596;52.520;13.464;2023-02-11T00:22:04;4.70;99.90
37754;DHT22;23596;52.520;13.464;2023-02-11T00:24:30;3.50;99.90
37754;DHT22;23596;52.520;13.464;2023-02-11T00:26:55;3.50;99.90
37754;DHT22;23596;52.520;13.464;2023-02-11T00:29:21;3.50;99.90
37754;DHT22;23596;52.520;13.464;2023-02-11T00:31:47;3.50;99.90
37754;DHT22;23596;52.520;13.464;2023-02-11T00:34:12;3.50;99.90
37754;DHT22;23596;52.520;13.464;2023-02-11T00:36:38;3.50;99.90
37754;DHT22;23596;52.520;13.464;2023-02-11T00:39:04;3.80;99.90
37754;DHT22;23596;52.520;13.464;2023-02-11T00:41:30;3.50;99.90
37754;DHT22;23596;52.520;13.464;2023-02-11T00:43:56;3.60;99.90
37754;DHT22;23596;52.520;13.464;2023-02-11T00:46:22;3.60;99.90
37754;DHT22;23596;52.520;13.464;2023-02-11T00:48:48;3.70;99.90
37754;DHT22;23596;52.520;13.464;2023-02-11T00:51:14;4.50;99.90
37754;DHT22;23596;52.520;13.464;2023-02-11T00:53:39;5.30;99.90
37754;DHT22;23596;52.520;13.464;2023-02-11T00:56:05;3.70;99.90
37754;DHT22;23596;52.520;13.464;2023-02-11T00:58:31;3.80;99.90
37754;DHT22;23596;52.520;13.464;2023-02-11T01:00:57;3.90;99.90
37754;DHT22;23596;52.520;13.464;2023-02-11T01:03:23;4.60;99.90
37754;DHT22;23596;52.520;13.464;2023-02-11T01:05:48;3.80;99.90
37754;DHT22;23596;52.520;13.464;2023-02-11T01:08:14;3.90;99.90
37754;DHT22;23596;52.520;13.464;2023-02-11T01:10:40;3.90;99.90
37754;DHT22;23596;52.520;13.464;2023-02-11T01:13:06;3.90;99.90
37754;DHT22;23596;52.520;13.464;2023-02-11T01:15:32;3.90;99.90
37754;DHT22;23596;52.520;13.464;2023-02-11T01:17:58;4.00;99.90
37754;DHT22;23596;52.520;13.464;2023-02-11T01:20:25;3.90;99.90
37754;DHT22;23596;52.520;13.464;2023-02-11T01:22:51;3.90;99.90
37754;DHT22;23596;52.520;13.464;2023-02-11T01:25:17;4.20;99.90
37754;DHT22;23596;52.520;13.464;2023-02-11T01:27:43;4.00;99.90
37754;DHT22;23596;52.520;13.464;2023-02-11T01:30:11;4.00;99.90
37754;DHT22;23596;52.520;13.464;2023-02-11T01:32:36;3.90;99.90
37754;DHT22;23596;52.520;13.464;2023-02-11T01:35:02;4.00;99.90
37754;DHT22;23596;52.520;13.464;2023-02-11T01:37:28;4.00;99.90
37754;DHT22;23596;52.520;13.464;2023-02-11T01:39:53;4.00;99.90
37754;DHT22;23596;52.520;13.464;2023-02-11T01:42:21;4.00;99.90
37754;DHT22;23596;52.520;13.464;2023-02-11T01:44:52;3.90;99.90
37754;DHT22;23596;52.520;13.464;2023-02-11T01:47:19;4.00;99.90
37754;DHT22;23596;52.520;13.464;2023-02-11T01:49:46;4.00;99.90
37754;DHT22;23596;52.520;13.464;2023-02-11T01:52:19;4.10;99.90
37754;DHT22;23596;52.520;13.464;2023-02-11T01:54:52;4.10;99.90
37754;DHT22;23596;52.520;13.464;2023-02-11T01:57:39;4.10;99.90
37754;DHT22;23596;52.520;13.464;2023-02-11T02:00:24;4.10;99.90
37754;DHT22;23596;52.520;13.464;2023-02-11T02:05:35;4.10;99.90
37754;DHT22;23596;52.520;13.464;2023-02-11T02:10:42;4.20;99.90
37754;DHT22;23596;52.520;13.464;2023-02-11T02:13:09;4.20;99.90
37754;DHT22;23596;52.520;13.464;2023-02-11T02:15:42;4.30;99.90
37754;DHT22;23596;52.520;13.464;2023-02-11T02:27:23;4.30;99.90
37754;DHT22;23596;52.520;13.464;2023-02-11T02:32:48;4.40;99.90
37754;DHT22;23596;52.520;13.464;2023-02-11T02:35:33;4.40;99.90
37754;DHT22;23596;52.520;13.464;2023-02-11T02:41:18;4.50;99.90
37754;DHT22;23596;52.520;13.464;2023-02-11T02:43:47;4.50;99.90
37754;DHT22;23596;52.520;13.464;2023-02-11T02:48:38;4.60;99.90
37754;DHT22;23596;52.520;13.464;2023-02-11T03:02:30;4.70;99.90
37754;DHT22;23596;52.520;13.464;2023-02-11T03:05:17;4.70;99.90
37754;DHT22;23596;52.520;13.464;2023-02-11T03:08:08;4.80;99.90
37754;DHT22;23596;52.520;13.464;2023-02-11T03:10:40;4.70;99.90
37754;DHT22;23596;52.520;13.464;2023-02-11T03:13:07;4.80;99.90
37754;DHT22;23596;52.520;13.464;2023-02-11T03:15:41;4.80;99.90
37754;DHT22;23596;52.520;13.464;2023-02-11T03:18:11;4.80;99.90
37754;DHT22;23596;52.520;13.464;2023-02-11T03:20:39;4.80;99.90
37754;DHT22;23596;52.520;13.464;2023-02-11T03:23:35;5.00;99.90
37754;DHT22;23596;52.520;13.464;2023-02-11T03:26:10;4.80;99.90
37754;DHT22;23596;52.520;13.464;2023-02-11T03:28:46;4.80;99.90
37754;DHT22;23596;52.520;13.464;2023-02-11T03:37:12;4.90;99.90
37754;DHT22;23596;52.520;13.464;2023-02-11T03:39:45;4.90;99.90
37754;DHT22;23596;52.520;13.464;2023-02-11T03:42:13;5.00;99.90
37754;DHT22;23596;52.520;13.464;2023-02-11T03:44:52;5.00;99.90
37754;DHT22;23596;52.520;13.464;2023-02-11T03:47:22;4.90;99.90
37754;DHT22;23596;52.520;13.464;2023-02-11T03:49:51;5.00;99.90
37754;DHT22;23596;52.520;13.464;2023-02-11T03:52:17;5.00;99.90
37754;DHT22;23596;52.520;13.464;2023-02-11T03:54:44;4.90;99.90
37754;DHT22;23596;52.520;13.464;2023-02-11T03:57:11;5.00;99.90
37754;DHT22;23596;52.520;13.464;2023-02-11T03:59:57;4.90;99.90
37754;DHT22;23596;52.520;13.464;2023-02-11T04:02:27;4.90;99.90
37754;DHT22;23596;52.520;13.464;2023-02-11T04:04:53;4.90;99.90
37754;DHT22;23596;52.520;13.464;2023-02-11T04:07:19;4.90;99.90
37754;DHT22;23596;52.520;13.464;2023-02-11T04:09:45;4.90;99.90
37754;DHT22;23596;52.520;13.464;2023-02-11T04:12:10;5.00;99.90
37754;DHT22;23596;52.520;13.464;2023-02-11T04:14:36;5.00;99.90
37754;DHT22;23596;52.520;13.464;2023-02-11T04:17:02;5.00;99.90
37754;DHT22;23596;52.520;13.464;2023-02-11T04:19:28;5.00;99.90
37754;DHT22;23596;52.520;13.464;2023-02-11T04:21:53;5.00;99.90
37754;DHT22;23596;52.520;13.464;2023-02-11T04:24:19;5.00;99.90
37754;DHT22;23596;52.520;13.464;2023-02-11T04:26:44;5.00;99.90
37754;DHT22;23596;52.520;13.464;2023-02-11T04:29:10;5.00;99.90
37754;DHT22;23596;52.520;13.464;2023-02-11T04:31:36;5.00;99.90
37754;DHT22;23596;52.520;13.464;2023-02-11T04:34:01;5.00;99.90
37754;DHT22;23596;52.520;13.464;2023-02-11T04:36:27;5.10;99.90
37754;DHT22;23596;52.520;13.464;2023-02-11T04:38:52;5.10;99.90
37754;DHT22;23596;52.520;13.464;2023-02-11T04:41:18;5.10;99.90
37754;DHT22;23596;52.520;13.464;2023-02-11T04:43:43;5.10;99.90
37754;DHT22;23596;52.520;13.464;2023-02-11T04:46:09;5.10;99.90
37754;DHT22;23596;52.520;13.464;2023-02-11T04:48:35;5.10;99.90
37754;DHT22;23596;52.520;13.464;2023-02-11T04:51:01;5.00;99.90
37754;DHT22;23596;52.520;13.464;2023-02-11T04:53:27;5.00;99.90
37754;DHT22;23596;52.520;13.464;2023-02-11T04:55:52;5.20;99.90
37754;DHT22;23596;52.520;13.464;2023-02-11T04:58:19;5.00;99.90
37754;DHT22;23596;52.520;13.464;2023-02-11T05:00:45;5.10;99.90
37754;DHT22;23596;52.520;13.464;2023-02-11T05:03:11;5.10;99.90
37754;DHT22;23596;52.520;13.464;2023-02-11T05:05:38;5.00;99.90
37754;DHT22;23596;52.520;13.464;2023-02-11T05:08:06;5.60;99.90
37754;DHT22;23596;52.520;13.464;2023-02-11T05:10:32;5.00;99.90
37754;DHT22;23596;52.520;13.464;2023-02-11T05:12:57;5.00;99.90
37754;DHT22;23596;52.520;13.464;2023-02-11T05:15:23;5.00;99.90
37754;DHT22;23596;52.520;13.464;2023-02-11T05:17:49;6.50;99.90
37754;DHT22;23596;52.520;13.464;2023-02-11T05:20:14;5.00;99.90
37754;DHT22;23596;52.520;13.464;2023-02-11T05:22:40;6.30;99.90
37754;DHT22;23596;52.520;13.464;2023-02-11T05:25:06;5.00;99.90
37754;DHT22;23596;52.520;13.464;2023-02-11T05:27:31;5.00;99.90
37754;DHT22;23596;52.520;13.464;2023-02-11T05:29:57;5.00;99.90
37754;DHT22;23596;52.520;13.464;2023-02-11T05:32:22;5.00;99.90
37754;DHT22;23596;52.520;13.464;2023-02-11T05:34:48;5.20;99.90
37754;DHT22;23596;52.520;13.464;2023-02-11T05:37:14;5.00;99.90
37754;DHT22;23596;52.520;13.464;2023-02-11T05:39:39;5.10;99.90
37754;DHT22;23596;52.520;13.464;2023-02-11T05:42:05;5.10;99.90
37754;DHT22;23596;52.520;13.464;2023-02-11T05:44:31;5.10;99.90
37754;DHT22;23596;52.520;13.464;2023-02-11T05:46:56;5.10;99.90
37754;DHT22;23596;52.520;13.464;2023-02-11T05:49:22;5.10;99.90
37754;DHT22;23596;52.520;13.464;2023-02-11T05:51:47;5.10;99.90
37754;DHT22;23596;52.520;13.464;2023-02-11T05:54:13;5.10;99.90
37754;DHT22;23596;52.520;13.464;2023-02-11T05:56:39;5.10;99.90
37754;DHT22;23596;52.520;13.464;2023-02-11T05:59:05;5.10;99.90
37754;DHT22;23596;52.520;13.464;2023-02-11T06:01:30;5.10;99.90
37754;DHT22;23596;52.520;13.464;2023-02-11T06:03:56;5.10;99.90
37754;DHT22;23596;52.520;13.464;2023-02-11T06:06:22;5.10;99.90
37754;DHT22;23596;52.520;13.464;2023-02-11T06:08:47;5.30;99.90
37754;DHT22;23596;52.520;13.464;2023-02-11T06:11:14;5.20;99.90
37754;DHT22;23596;52.520;13.464;2023-02-11T06:13:40;5.20;99.90
37754;DHT22;23596;52.520;13.464;2023-02-11T06:16:05;5.20;99.90
37754;DHT22;23596;52.520;13.464;2023-02-11T06:18:31;5.20;99.90
37754;DHT22;23596;52.520;13.464;2023-02-11T06:20:58;5.20;99.90
37754;DHT22;23596;52.520;13.464;2023-02-11T06:23:24;5.30;99.90
37754;DHT22;23596;52.520;13.464;2023-02-11T06:25:50;5.30;99.90
37754;DHT22;23596;52.520;13.464;2023-02-11T06:28:16;5.30;99.90
37754;DHT22;23596;52.520;13.464;2023-02-11T06:30:42;5.30;99.90
37754;DHT22;23596;52.520;13.464;2023-02-11T06:33:08;5.30;99.90
37754;DHT22;23596;52.520;13.464;2023-02-11T06:35:33;5.30;99.90
37754;DHT22;23596;52.520;13.464;2023-02-11T06:38:00;5.40;99.90
37754;DHT22;23596;52.520;13.464;2023-02-11T06:40:26;5.30;99.90
37754;DHT22;23596;52.520;13.464;2023-02-11T06:42:51;5.40;99.90
37754;DHT22;23596;52.520;13.464;2023-02-11T06:45:17;5.40;99.90
37754;DHT22;23596;52.520;13.464;2023-02-11T06:47:44;5.30;99.90
37754;DHT22;23596;52.520;13.464;2023-02-11T06:50:12;5.50;99.90
37754;DHT22;23596;52.520;13.464;2023-02-11T06:52:38;6.30;99.90
37754;DHT22;23596;52.520;13.464;2023-02-11T06:55:04;5.40;99.90
37754;DHT22;23596;52.520;13.464;2023-02-11T06:57:30;5.40;99.90
37754;DHT22;23596;52.520;13.464;2023-02-11T06:59:56;5.40;99.90
37754;DHT22;23596;52.520;13.464;2023-02-11T07:02:21;5.50;99.90
37754;DHT22;23596;52.520;13.464;2023-02-11T07:04:47;5.50;99.90
37754;DHT22;23596;52.520;13.464;2023-02-11T07:07:12;5.40;99.90
37754;DHT22;23596;52.520;13.464;2023-02-11T07:09:38;5.50;99.90
37754;DHT22;23596;52.520;13.464;2023-02-11T07:12:04;5.50;99.90
37754;DHT22;23596;52.520;13.464;2023-02-11T07:14:29;5.50;99.90
37754;DHT22;23596;52.520;13.464;2023-02-11T07:16:55;5.50;99.90
37754;DHT22;23596;52.520;13.464;2023-02-11T07:19:20;5.50;99.90
37754;DHT22;23596;52.520;13.464;2023-02-11T07:21:46;5.60;99.90
37754;DHT22;23596;52.520;13.464;2023-02-11T07:24:13;5.60;99.90
37754;DHT22;23596;52.520;13.464;2023-02-11T07:26:39;5.60;99.90
37754;DHT22;23596;52.520;13.464;2023-02-11T07:29:05;5.60;99.90
37754;DHT22;23596;52.520;13.464;2023-02-11T07:31:31;5.60;99.90
37754;DHT22;23596;52.520;13.464;2023-02-11T07:33:59;5.70;99.90
37754;DHT22;23596;52.520;13.464;2023-02-11T07:36:26;5.70;99.90
37754;DHT22;23596;52.520;13.464;2023-02-11T07:38:52;5.70;99.90
37754;DHT22;23596;52.520;13.464;2023-02-11T07:41:20;5.70;99.90
37754;DHT22;23596;52.520;13.464;2023-02-11T07:43:46;5.70;99.90
37754;DHT22;23596;52.520;13.464;2023-02-11T07:46:18;5.70;99.90
37754;DHT22;23596;52.520;13.464;2023-02-11T07:48:45;5.70;99.90
37754;DHT22;23596;52.520;13.464;2023-02-11T07:51:14;5.80;99.90
37754;DHT22;23596;52.520;13.464;2023-02-11T07:53:40;5.80;99.90
37754;DHT22;23596;52.520;13.464;2023-02-11T07:56:07;5.80;99.90
37754;DHT22;23596;52.520;13.464;2023-02-11T07:58:34;5.80;99.90
37754;DHT22;23596;52.520;13.464;2023-02-11T08:01:05;5.80;99.90
37754;DHT22;23596;52.520;13.464;2023-02-11T08:03:31;5.90;99.90
37754;DHT22;23596;52.520;13.464;2023-02-11T08:05:57;5.90;99.90
37754;DHT22;23596;52.520;13.464;2023-02-11T08:08:25;5.90;99.90
37754;DHT22;23596;52.520;13.464;2023-02-11T08:10:51;5.90;99.90
37754;DHT22;23596;52.520;13.464;2023-02-11T08:13:16;5.90;99.90
37754;DHT22;23596;52.520;13.464;2023-02-11T08:15:42;5.90;99.90
37754;DHT22;23596;52.520;13.464;2023-02-11T08:18:08;6.00;99.90
37754;DHT22;23596;52.520;13.464;2023-02-11T08:20:33;6.00;99.90
37754;DHT22;23596;52.520;13.464;2023-02-11T08:22:59;6.00;99.90
37754;DHT22;23596;52.520;13.464;2023-02-11T08:25:25;6.00;99.90
37754;DHT22;23596;52.520;13.464;2023-02-11T08:27:51;6.00;99.90
37754;DHT22;23596;52.520;13.464;2023-02-11T08:30:16;6.10;99.90
37754;DHT22;23596;52.520;13.464;2023-02-11T08:32:42;6.90;99.90
37754;DHT22;23596;52.520;13.464;2023-02-11T08:35:08;6.00;99.90
37754;DHT22;23596;52.520;13.464;2023-02-11T08:37:36;6.00;99.90
37754;DHT22;23596;52.520;13.464;2023-02-11T08:40:02;6.10;99.90
37754;DHT22;23596;52.520;13.464;2023-02-11T08:42:28;6.10;99.90
37754;DHT22;23596;52.520;13.464;2023-02-11T08:44:54;6.10;99.90
37754;DHT22;23596;52.520;13.464;2023-02-11T08:47:20;6.10;99.90
37754;DHT22;23596;52.520;13.464;2023-02-11T08:49:45;6.10;99.90
37754;DHT22;23596;52.520;13.464;2023-02-11T08:52:11;7.60;99.90
37754;DHT22;23596;52.520;13.464;2023-02-11T08:54:36;6.10;99.90
37754;DHT22;23596;52.520;13.464;2023-02-11T08:57:02;6.20;99.90
37754;DHT22;23596;52.520;13.464;2023-02-11T08:59:28;6.20;99.90
37754;DHT22;23596;52.520;13.464;2023-02-11T09:01:54;6.20;99.90
37754;DHT22;23596;52.520;13.464;2023-02-11T09:04:20;6.20;99.90
37754;DHT22;23596;52.520;13.464;2023-02-11T09:06:45;6.20;99.90
37754;DHT22;23596;52.520;13.464;2023-02-11T09:09:13;7.50;99.90
37754;DHT22;23596;52.520;13.464;2023-02-11T09:11:40;7.50;99.90
37754;DHT22;23596;52.520;13.464;2023-02-11T09:14:07;6.20;99.90
37754;DHT22;23596;52.520;13.464;2023-02-11T09:16:34;6.40;99.90
37754;DHT22;23596;52.520;13.464;2023-02-11T09:19:01;6.30;99.90
37754;DHT22;23596;52.520;13.464;2023-02-11T09:21:28;6.30;99.90
37754;DHT22;23596;52.520;13.464;2023-02-11T09:23:54;6.30;99.90
37754;DHT22;23596;52.520;13.464;2023-02-11T09:26:23;6.30;99.90
37754;DHT22;23596;52.520;13.464;2023-02-11T09:28:49;6.30;99.90
37754;DHT22;23596;52.520;13.464;2023-02-11T09:31:16;6.30;99.90
37754;DHT22;23596;52.520;13.464;2023-02-11T09:33:44;6.40;99.90
37754;DHT22;23596;52.520;13.464;2023-02-11T09:36:19;6.30;99.90
37754;DHT22;23596;52.520;13.464;2023-02-11T09:38:45;6.40;99.90
37754;DHT22;23596;52.520;13.464;2023-02-11T09:44:02;6.40;99.90
37754;DHT22;23596;52.520;13.464;2023-02-11T09:46:35;6.40;99.90
37754;DHT22;23596;52.520;13.464;2023-02-11T09:49:03;6.50;99.90
37754;DHT22;23596;52.520;13.464;2023-02-11T09:51:39;6.50;99.90
37754;DHT22;23596;52.520;13.464;2023-02-11T09:56:48;6.40;99.90
37754;DHT22;23596;52.520;13.464;2023-02-11T09:59:15;6.40;99.90
37754;DHT22;23596;52.520;13.464;2023-02-11T10:02:01;6.40;99.90
37754;DHT22;23596;52.520;13.464;2023-02-11T10:07:51;6.40;99.90
37754;DHT22;23596;52.520;13.464;2023-02-11T10:13:44;6.50;99.90
37754;DHT22;23596;52.520;13.464;2023-02-11T10:22:01;6.50;99.90
37754;DHT22;23596;52.520;13.464;2023-02-11T10:24:30;6.50;99.90
37754;DHT22;23596;52.520;13.464;2023-02-11T10:26:56;6.50;99.90
37754;DHT22;23596;52.520;13.464;2023-02-11T10:29:34;6.50;99.90
37754;DHT22;23596;52.520;13.464;2023-02-11T10:32:04;6.50;99.90
37754;DHT22;23596;52.520;13.464;2023-02-11T10:34:31;6.50;99.90
37754;DHT22;23596;52.520;13.464;2023-02-11T10:36:57;6.50;99.90
37754;DHT22;23596;52.520;13.464;2023-02-11T10:39:25;6.50;99.90
37754;DHT22;23596;52.520;13.464;2023-02-11T10:41:55;6.50;99.90
37754;DHT22;23596;52.520;13.464;2023-02-11T10:44:30;6.50;99.90
37754;DHT22;23596;52.520;13.464;2023-02-11T10:46:58;6.50;99.90
37754;DHT22;23596;52.520;13.464;2023-02-11T10:49:40;6.50;99.90
37754;DHT22;23596;52.520;13.464;2023-02-11T10:52:22;6.50;99.90
37754;DHT22;23596;52.520;13.464;2023-02-11T10:57:36;6.50;99.90
37754;DHT22;23596;52.520;13.464;2023-02-11T11:02:59;6.50;99.90
37754;DHT22;23596;52.520;13.464;2023-02-11T11:05:35;6.50;99.90
37754;DHT22;23596;52.520;13.464;2023-02-11T11:08:05;6.50;99.90
37754;DHT22;23596;52.520;13.464;2023-02-11T11:13:00;6.60;99.90
37754;DHT22;23596;52.520;13.464;2023-02-11T11:15:28;6.50;99.90
37754;DHT22;23596;52.520;13.464;2023-02-11T11:20:37;6.60;99.90
37754;DHT22;23596;52.520;13.464;2023-02-11T11:23:18;6.60;99.90
37754;DHT22;23596;52.520;13.464;2023-02-11T11:26:03;6.60;99.90
37754;DHT22;23596;52.520;13.464;2023-02-11T11:28:35;6.60;99.90
37754;DHT22;23596;52.520;13.464;2023-02-11T11:31:03;6.60;99.90
37754;DHT22;23596;52.520;13.464;2023-02-11T11:33:33;6.60;99.90
37754;DHT22;23596;52.520;13.464;2023-02-11T11:36:06;6.60;99.90
37754;DHT22;23596;52.520;13.464;2023-02-11T11:38:34;6.60;99.90
37754;DHT22;23596;52.520;13.464;2023-02-11T11:41:26;6.60;99.90
37754;DHT22;23596;52.520;13.464;2023-02-11T11:44:21;6.60;99.90
37754;DHT22;23596;52.520;13.464;2023-02-11T11:46:48;6.70;99.90
37754;DHT22;23596;52.520;13.464;2023-02-11T11:49:26;6.70;99.90
37754;DHT22;23596;52.520;13.464;2023-02-11T11:54:36;6.70;99.90
37754;DHT22;23596;52.520;13.464;2023-02-11T11:57:13;6.70;99.90
37754;DHT22;23596;52.520;13.464;2023-02-11T11:59:40;6.70;99.90
37754;DHT22;23596;52.520;13.464;2023-02-11T12:05:26;6.70;99.90
37754;DHT22;23596;52.520;13.464;2023-02-11T12:22:00;6.80;99.90
37754;DHT22;23596;52.520;13.464;2023-02-11T12:27:49;6.90;99.90
37754;DHT22;23596;52.520;13.464;2023-02-11T12:38:49;7.00;99.90
37754;DHT22;23596;52.520;13.464;2023-02-11T12:50:16;7.00;99.90
37754;DHT22;23596;52.520;13.464;2023-02-11T12:55:26;7.10;99.90
37754;DHT22;23596;52.520;13.464;2023-02-11T12:57:53;7.10;99.90
37754;DHT22;23596;52.520;13.464;2023-02-11T13:00:23;7.10;99.90
37754;DHT22;23596;52.520;13.464;2023-02-11T13:03:09;7.10;99.90
37754;DHT22;23596;52.520;13.464;2023-02-11T13:05:45;7.10;99.90
37754;DHT22;23596;52.520;13.464;2023-02-11T13:08:32;7.20;99.90
37754;DHT22;23596;52.520;13.464;2023-02-11T13:11:07;7.20;99.90
37754;DHT22;23596;52.520;13.464;2023-02-11T13:16:19;7.10;99.90
37754;DHT22;23596;52.520;13.464;2023-02-11T13:21:44;7.20;99.90
37754;DHT22;23596;52.520;13.464;2023-02-11T13:32:13;7.20;99.90
37754;DHT22;23596;52.520;13.464;2023-02-11T13:42:49;7.20;99.90
37754;DHT22;23596;52.520;13.464;2023-02-11T13:48:14;7.30;99.90
37754;DHT22;23596;52.520;13.464;2023-02-11T13:50:46;7.20;99.90
37754;DHT22;23596;52.520;13.464;2023-02-11T13:53:13;7.30;99.90
37754;DHT22;23596;52.520;13.464;2023-02-11T13:55:42;7.30;99.90
37754;DHT22;23596;52.520;13.464;2023-02-11T14:00:52;7.30;99.90
37754;DHT22;23596;52.520;13.464;2023-02-11T14:03:24;7.30;99.90
37754;DHT22;23596;52.520;13.464;2023-02-11T14:14:20;7.30;99.90
37754;DHT22;23596;52.520;13.464;2023-02-11T14:19:33;7.30;99.90
37754;DHT22;23596;52.520;13.464;2023-02-11T14:24:54;7.30;99.90
37754;DHT22;23596;52.520;13.464;2023-02-11T14:27:39;7.40;99.90
37754;DHT22;23596;52.520;13.464;2023-02-11T14:30:18;7.30;99.90
37754;DHT22;23596;52.520;13.464;2023-02-11T14:36:04;7.30;99.90
37754;DHT22;23596;52.520;13.464;2023-02-11T14:38:15;7.40;99.90
37754;DHT22;23596;52.520;13.464;2023-02-11T14:43:21;7.40;99.90
37754;DHT22;23596;52.520;13.464;2023-02-11T14:45:52;7.40;99.90
37754;DHT22;23596;52.520;13.464;2023-02-11T14:48:20;7.40;99.90
37754;DHT22;23596;52.520;13.464;2023-02-11T14:51:28;7.40;99.90
37754;DHT22;23596;52.520;13.464;2023-02-11T14:53:35;7.40;99.90
37754;DHT22;23596;52.520;13.464;2023-02-11T14:56:02;7.40;99.90
37754;DHT22;23596;52.520;13.464;2023-02-11T14:58:31;7.30;99.90
37754;DHT22;23596;52.520;13.464;2023-02-11T15:00:59;7.40;99.90
37754;DHT22;23596;52.520;13.464;2023-02-11T15:08:27;7.40;99.90
37754;DHT22;23596;52.520;13.464;2023-02-11T15:10:53;7.40;99.90
37754;DHT22;23596;52.520;13.464;2023-02-11T15:13:20;7.40;99.90
37754;DHT22;23596;52.520;13.464;2023-02-11T15:15:56;7.40;99.90
37754;DHT22;23596;52.520;13.464;2023-02-11T15:18:30;7.40;99.90
37754;DHT22;23596;52.520;13.464;2023-02-11T15:20:56;7.40;99.90
37754;DHT22;23596;52.520;13.464;2023-02-11T15:23:24;7.40;99.90
37754;DHT22;23596;52.520;13.464;2023-02-11T15:25:51;7.30;99.90
37754;DHT22;23596;52.520;13.464;2023-02-11T15:28:30;7.30;99.90
37754;DHT22;23596;52.520;13.464;2023-02-11T15:31:02;7.30;99.90
37754;DHT22;23596;52.520;13.464;2023-02-11T15:33:28;7.40;99.90
37754;DHT22;23596;52.520;13.464;2023-02-11T15:36:00;7.40;99.90
37754;DHT22;23596;52.520;13.464;2023-02-11T15:38:27;7.40;99.90
37754;DHT22;23596;52.520;13.464;2023-02-11T15:40:59;7.40;99.90
37754;DHT22;23596;52.520;13.464;2023-02-11T15:43:46;7.40;99.90
37754;DHT22;23596;52.520;13.464;2023-02-11T15:46:19;7.40;99.90
37754;DHT22;23596;52.520;13.464;2023-02-11T15:48:48;7.40;99.90
37754;DHT22;23596;52.520;13.464;2023-02-11T15:53:53;7.40;99.90
37754;DHT22;23596;52.520;13.464;2023-02-11T15:56:33;7.40;99.90
37754;DHT22;23596;52.520;13.464;2023-02-11T16:01:41;7.40;99.90
37754;DHT22;23596;52.520;13.464;2023-02-11T16:04:17;7.30;99.90
37754;DHT22;23596;52.520;13.464;2023-02-11T16:06:43;7.30;99.90
37754;DHT22;23596;52.520;13.464;2023-02-11T16:19:35;7.30;99.90
37754;DHT22;23596;52.520;13.464;2023-02-11T16:22:09;7.30;99.90
37754;DHT22;23596;52.520;13.464;2023-02-11T16:24:36;7.40;99.90
37754;DHT22;23596;52.520;13.464;2023-02-11T16:27:39;7.40;99.90
37754;DHT22;23596;52.520;13.464;2023-02-11T16:30:15;7.40;99.90
37754;DHT22;23596;52.520;13.464;2023-02-11T16:32:46;7.40;99.90
37754;DHT22;23596;52.520;13.464;2023-02-11T16:35:12;7.40;99.90
37754;DHT22;23596;52.520;13.464;2023-02-11T16:37:38;7.40;99.90
37754;DHT22;23596;52.520;13.464;2023-02-11T16:40:04;7.40;99.90
37754;DHT22;23596;52.520;13.464;2023-02-11T16:42:30;7.40;99.90
37754;DHT22;23596;52.520;13.464;2023-02-11T16:44:56;7.40;99.90
37754;DHT22;23596;52.520;13.464;2023-02-11T16:47:26;7.40;99.90
37754;DHT22;23596;52.520;13.464;2023-02-11T16:49:53;7.40;99.90
37754;DHT22;23596;52.520;13.464;2023-02-11T16:52:20;7.40;99.90
37754;DHT22;23596;52.520;13.464;2023-02-11T16:54:46;7.40;99.90
37754;DHT22;23596;52.520;13.464;2023-02-11T16:57:18;7.40;99.90
37754;DHT22;23596;52.520;13.464;2023-02-11T16:59:44;7.40;99.90
37754;DHT22;23596;52.520;13.464;2023-02-11T17:02:24;7.40;99.90
37754;DHT22;23596;52.520;13.464;2023-02-11T17:04:54;7.40;99.90
37754;DHT22;23596;52.520;13.464;2023-02-11T17:07:20;7.40;99.90
37754;DHT22;23596;52.520;13.464;2023-02-11T17:09:46;7.40;99.90
37754;DHT22;23596;52.520;13.464;2023-02-11T17:12:12;7.40;99.90
37754;DHT22;23596;52.520;13.464;2023-02-11T17:14:37;7.40;99.90
37754;DHT22;23596;52.520;13.464;2023-02-11T17:17:03;7.50;99.90
37754;DHT22;23596;52.520;13.464;2023-02-11T17:19:29;7.40;99.90
37754;DHT22;23596;52.520;13.464;2023-02-11T17:21:54;7.40;99.90
37754;DHT22;23596;52.520;13.464;2023-02-11T17:24:21;7.50;99.90
37754;DHT22;23596;52.520;13.464;2023-02-11T17:26:47;7.40;99.90
37754;DHT22;23596;52.520;13.464;2023-02-11T17:29:15;7.40;99.90
37754;DHT22;23596;52.520;13.464;2023-02-11T17:31:41;7.40;99.90
37754;DHT22;23596;52.520;13.464;2023-02-11T17:34:07;7.40;99.90
37754;DHT22;23596;52.520;13.464;2023-02-11T17:36:33;7.50;99.90
37754;DHT22;23596;52.520;13.464;2023-02-11T17:39:00;7.40;99.90
37754;DHT22;23596;52.520;13.464;2023-02-11T17:41:26;7.40;99.90
37754;DHT22;23596;52.520;13.464;2023-02-11T17:43:52;7.40;99.90
37754;DHT22;23596;52.520;13.464;2023-02-11T17:46:18;7.50;99.90
37754;DHT22;23596;52.520;13.464;2023-02-11T17:48:44;7.50;99.90
37754;DHT22;23596;52.520;13.464;2023-02-11T17:51:26;7.50;99.90
37754;DHT22;23596;52.520;13.464;2023-02-11T17:53:52;7.50;99.90
37754;DHT22;23596;52.520;13.464;2023-02-11T17:56:18;7.50;99.90
37754;DHT22;23596;52.520;13.464;2023-02-11T17:58:43;7.50;99.90
37754;DHT22;23596;52.520;13.464;2023-02-11T18:01:09;7.50;99.90
37754;DHT22;23596;52.520;13.464;2023-02-11T18:03:35;7.50;99.90
37754;DHT22;23596;52.520;13.464;2023-02-11T18:06:02;7.50;99.90
37754;DHT22;23596;52.520;13.464;2023-02-11T18:08:27;7.50;99.90
37754;DHT22;23596;52.520;13.464;2023-02-11T18:10:53;7.50;99.90
37754;DHT22;23596;52.520;13.464;2023-02-11T18:13:19;7.50;99.90
37754;DHT22;23596;52.520;13.464;2023-02-11T18:15:45;7.50;99.90
37754;DHT22;23596;52.520;13.464;2023-02-11T18:18:10;7.50;99.90
37754;DHT22;23596;52.520;13.464;2023-02-11T18:20:36;7.50;99.90
37754;DHT22;23596;52.520;13.464;2023-02-11T18:23:02;7.50;99.90
37754;DHT22;23596;52.520;13.464;2023-02-11T18:25:28;7.50;99.90
37754;DHT22;23596;52.520;13.464;2023-02-11T18:27:55;7.50;99.90
37754;DHT22;23596;52.520;13.464;2023-02-11T18:30:21;7.50;99.90
37754;DHT22;23596;52.520;13.464;2023-02-11T18:32:51;7.50;99.90
37754;DHT22;23596;52.520;13.464;2023-02-11T18:35:17;7.50;99.90
37754;DHT22;23596;52.520;13.464;2023-02-11T18:37:44;7.50;99.90